Time;durP1;ratioP1;P1;durP2;ratioP2;P2;SDS_P1;SDS_P2;PMS_P1;PMS_P2;Temp;Humidity;BMP_temperature;BMP_pressure;BME280_temperature;BME280_humidity;BME280_pressure;Samples;Min_cycle;Max_cycle;Signal;HPM_P1;HPM_P2
2022/06/21 00:00:11;;;;;;;2.83;1.60;;;;;;;12.90;nan;100515.97;4969870;28;20031;-71
2022/06/21 00:02:37;;;;;;;3.25;1.83;;;;;;;12.87;nan;100515.47;4985253;28;20038;-71
2022/06/21 00:05:03;;;;;;;3.40;1.52;;;;;;;12.86;nan;100509.34;4988091;28;20400;-71
2022/06/21 00:07:29;;;;;;;2.42;1.67;;;;;;;12.85;nan;100507.69;4970218;28;20463;-71
2022/06/21 00:09:54;;;;;;;3.05;1.55;;;;;;;12.85;nan;100505.03;4988687;28;20114;-71
2022/06/21 00:12:21;;;;;;;5.35;2.03;;;;;;;12.84;nan;100511.34;4986462;28;20030;-71
2022/06/21 00:14:47;;;;;;;2.47;1.63;;;;;;;12.81;nan;100511.69;4987306;28;20052;-71
2022/06/21 00:17:16;;;;;;;2.55;1.50;;;;;;;12.77;nan;100513.00;4986801;28;20117;-70
2022/06/21 00:19:43;;;;;;;2.30;1.50;;;;;;;12.73;nan;100517.81;4988612;28;20487;-71
2022/06/21 00:22:12;;;;;;;1.88;1.45;;;;;;;12.71;nan;100524.28;4985972;28;20034;-71
2022/06/21 00:24:37;;;;;;;2.38;1.30;;;;;;;12.70;nan;100525.25;4988075;28;20030;-70
2022/06/21 00:27:03;;;;;;;3.05;1.40;;;;;;;12.68;nan;100521.94;4987210;28;20522;-71
2022/06/21 00:29:28;;;;;;;2.63;1.50;;;;;;;12.66;nan;100518.66;4987785;28;20047;-70
2022/06/21 00:31:53;;;;;;;2.10;1.73;;;;;;;12.64;nan;100510.84;4988288;28;20392;-71
2022/06/21 00:34:21;;;;;;;2.17;1.40;;;;;;;12.62;nan;100519.97;4985826;28;20309;-71
2022/06/21 00:36:48;;;;;;;2.58;1.52;;;;;;;12.60;nan;100514.81;4987468;28;20100;-70
2022/06/21 00:39:15;;;;;;;2.55;1.20;;;;;;;12.58;nan;100510.69;4987803;28;20491;-71
2022/06/21 00:41:52;;;;;;;1.55;1.23;;;;;;;12.59;nan;100517.66;4988291;28;20506;-71
2022/06/21 00:44:29;;;;;;;3.17;1.52;;;;;;;12.58;nan;100521.28;4990696;28;20038;-70
2022/06/21 00:47:03;;;;;;;4.03;1.83;;;;;;;12.59;nan;100523.78;4984108;28;20423;-71
2022/06/21 00:49:33;;;;;;;2.70;1.60;;;;;;;12.58;nan;100532.72;4988174;28;20093;-70
2022/06/21 00:52:40;;;;;;;3.50;1.85;;;;;;;12.53;nan;100527.09;4986316;28;20038;-71
2022/06/21 00:55:14;;;;;;;2.58;1.73;;;;;;;12.51;nan;100532.56;4970077;28;20076;-70
2022/06/21 00:57:47;;;;;;;3.63;1.70;;;;;;;12.49;nan;100531.09;4988674;28;20038;-71
2022/06/21 01:00:34;;;;;;;3.05;2.10;;;;;;;12.51;nan;100527.28;4990430;28;20057;-71
2022/06/21 01:03:06;;;;;;;4.05;2.10;;;;;;;12.57;nan;100520.47;4988174;28;20069;-71
2022/06/21 01:05:35;;;;;;;4.18;2.00;;;;;;;12.62;nan;100518.13;4990574;28;20056;-71
2022/06/21 01:08:00;;;;;;;3.50;2.20;;;;;;;12.64;nan;100516.16;4990041;28;20264;-71
2022/06/21 01:10:27;;;;;;;2.75;1.77;;;;;;;12.63;nan;100511.84;4971153;28;20229;-71
2022/06/21 01:13:14;;;;;;;2.63;1.70;;;;;;;12.64;nan;100518.00;4988804;28;20118;-71
2022/06/21 01:15:44;;;;;;;2.40;1.50;;;;;;;12.64;nan;100508.19;4990346;28;20085;-70
2022/06/21 01:18:12;;;;;;;2.13;1.63;;;;;;;12.62;nan;100518.13;4990481;28;20496;-71
2022/06/21 01:20:43;;;;;;;2.97;1.70;;;;;;;12.60;nan;100509.50;4992519;28;20166;-71
2022/06/21 01:23:37;;;;;;;4.70;2.03;;;;;;;12.60;nan;100501.56;4989530;28;20034;-71
2022/06/21 01:26:28;;;;;;;2.90;2.00;;;;;;;12.59;nan;100507.03;4991015;28;20363;-71
2022/06/21 01:28:54;;;;;;;4.13;2.35;;;;;;;12.52;nan;100497.09;4990610;28;20034;-71
2022/06/21 01:31:19;;;;;;;2.58;2.22;;;;;;;12.48;nan;100498.41;4991318;28;20050;-70
2022/06/21 01:33:44;;;;;;;2.80;2.00;;;;;;;12.45;nan;100497.91;4990387;28;20030;-71
2022/06/21 01:36:22;;;;;;;3.20;2.33;;;;;;;12.42;nan;100512.34;4990033;28;20503;-71
2022/06/21 01:39:03;;;;;;;3.00;2.10;;;;;;;12.41;nan;100501.88;4985937;28;20030;-70
2022/06/21 01:41:43;;;;;;;3.88;2.30;;;;;;;12.43;nan;100495.41;4988189;28;20030;-70
2022/06/21 01:44:21;;;;;;;2.78;2.20;;;;;;;12.44;nan;100491.78;4992943;28;20046;-71
2022/06/21 01:46:46;;;;;;;2.63;2.00;;;;;;;12.45;nan;100490.78;4990955;28;20061;-71
2022/06/21 01:49:16;;;;;;;3.83;2.30;;;;;;;12.45;nan;100485.47;4973130;28;20034;-71
2022/06/21 01:51:52;;;;;;;4.40;2.40;;;;;;;12.44;nan;100482.97;4989849;28;20034;-71
2022/06/21 01:54:21;;;;;;;5.20;2.50;;;;;;;12.41;nan;100484.13;4988947;28;20074;-71
2022/06/21 01:56:48;;;;;;;3.53;2.22;;;;;;;12.38;nan;100481.81;4989539;28;20407;-72
2022/06/21 01:59:22;;;;;;;3.20;2.45;;;;;;;12.37;nan;100481.97;4991122;28;20559;-70
2022/06/21 02:01:58;;;;;;;3.38;2.05;;;;;;;12.39;nan;100494.09;4990778;28;20137;-71
2022/06/21 02:04:29;;;;;;;3.05;1.83;;;;;;;12.38;nan;100487.13;4989518;28;20101;-71
2022/06/21 02:06:58;;;;;;;3.55;1.90;;;;;;;12.36;nan;100499.72;4985981;28;20117;-71
2022/06/21 02:09:27;;;;;;;2.65;1.90;;;;;;;12.38;nan;100483.66;4988903;28;20089;-71
2022/06/21 02:12:03;;;;;;;2.90;1.90;;;;;;;12.36;nan;100483.81;4988384;28;20038;-71
2022/06/21 02:14:38;;;;;;;3.70;2.00;;;;;;;12.34;nan;100488.44;4989134;28;20656;-71
2022/06/21 02:17:24;;;;;;;3.30;1.70;;;;;;;12.31;nan;100476.34;4989480;28;20411;-71
2022/06/21 02:20:16;;;;;;;3.83;1.95;;;;;;;12.29;nan;100465.06;4988175;28;20065;-71
2022/06/21 02:22:41;;;;;;;3.72;1.92;;;;;;;12.28;nan;100467.91;4952852;28;20045;-71
2022/06/21 02:25:15;;;;;;;3.95;1.60;;;;;;;12.28;nan;100467.91;4990112;28;20038;-71
2022/06/21 02:27:40;;;;;;;3.40;1.95;;;;;;;12.29;nan;100464.25;4987867;28;20608;-71
2022/06/21 02:30:14;;;;;;;3.40;1.70;;;;;;;12.29;nan;100458.94;4988777;28;20102;-71
2022/06/21 02:32:41;;;;;;;2.60;1.67;;;;;;;12.30;nan;100465.94;4965583;28;20034;-71
2022/06/21 02:35:20;;;;;;;2.33;1.50;;;;;;;12.28;nan;100457.31;4992422;28;20084;-71
2022/06/21 02:37:48;;;;;;;3.15;2.20;;;;;;;12.26;nan;100454.81;4991079;28;20049;-71
2022/06/21 02:40:21;;;;;;;3.95;2.58;;;;;;;12.23;nan;100454.31;4988649;28;20113;-72
2022/06/21 02:42:48;;;;;;;3.72;2.20;;;;;;;12.17;nan;100454.97;4988170;28;20068;-71
2022/06/21 02:45:25;;;;;;;4.22;2.30;;;;;;;12.13;nan;100454.44;4988032;28;20523;-71
2022/06/21 02:47:53;;;;;;;3.05;2.42;;;;;;;12.12;nan;100452.81;4991669;28;20503;-71
2022/06/21 02:50:34;;;;;;;3.15;1.88;;;;;;;12.09;nan;100451.31;4987270;28;20042;-71
2022/06/21 02:53:01;;;;;;;2.30;1.75;;;;;;;12.03;nan;100453.78;4989559;28;20038;-72
2022/06/21 02:55:43;;;;;;;2.83;1.70;;;;;;;11.98;nan;100458.75;4989553;28;20419;-71
2022/06/21 02:58:45;;;;;;;2.22;1.60;;;;;;;11.95;nan;100461.72;4989261;28;20089;-71
2022/06/21 03:01:19;;;;;;;3.58;2.13;;;;;;;11.94;nan;100462.69;4957953;28;20042;-71
2022/06/21 03:03:45;;;;;;;2.47;1.90;;;;;;;11.92;nan;100465.53;4990226;28;20034;-71
2022/06/21 03:06:14;;;;;;;3.15;1.88;;;;;;;11.94;nan;100463.56;4989684;28;20507;-71
2022/06/21 03:09:02;;;;;;;4.43;2.28;;;;;;;11.94;nan;100455.59;4989032;28;20054;-71
2022/06/21 03:11:31;;;;;;;3.08;1.75;;;;;;;11.93;nan;100456.56;4988264;28;20034;-71
2022/06/21 03:14:01;;;;;;;3.90;2.17;;;;;;;11.93;nan;100451.28;4984933;28;20030;-71
2022/06/21 03:16:27;;;;;;;4.40;2.50;;;;;;;11.94;nan;100446.78;4988424;28;20035;-71
2022/06/21 03:18:56;;;;;;;3.67;2.28;;;;;;;11.93;nan;100438.03;4987562;28;20030;-71
2022/06/21 03:21:29;;;;;;;2.97;2.03;;;;;;;11.92;nan;100424.94;4988691;28;20045;-71
2022/06/21 03:23:56;;;;;;;2.92;1.75;;;;;;;11.86;nan;100421.09;4988914;28;20277;-71
2022/06/21 03:26:21;;;;;;;6.75;2.17;;;;;;;11.85;nan;100420.28;4988332;28;20046;-71
2022/06/21 03:28:47;;;;;;;3.10;2.10;;;;;;;11.87;nan;100415.66;4989033;28;20037;-71
2022/06/21 03:31:30;;;;;;;4.18;2.65;;;;;;;11.93;nan;100414.19;4986101;28;20062;-71
2022/06/21 03:34:01;;;;;;;4.70;2.90;;;;;;;11.96;nan;100416.50;4989570;28;20618;-71
2022/06/21 03:36:27;;;;;;;;;;;;;;;11.95;nan;100416.69;4987995;28;20395;-71
2022/06/21 03:39:15;;;;;;;4.70;2.60;;;;;;;11.93;nan;100416.00;4991142;28;19921;-71
2022/06/21 03:41:44;;;;;;;4.63;2.88;;;;;;;11.90;nan;100417.16;4988099;28;20258;-72
2022/06/21 03:44:14;;;;;;;5.78;3.45;;;;;;;11.88;nan;100411.19;4987393;28;20041;-70
2022/06/21 03:46:52;;;;;;;3.27;2.53;;;;;;;11.82;nan;100407.34;4987422;28;20031;-70
2022/06/21 03:49:28;;;;;;;3.67;2.55;;;;;;;11.84;nan;100385.97;4987789;28;20403;-71
2022/06/21 03:51:55;;;;;;;5.00;2.30;;;;;;;11.85;nan;100387.66;4984375;28;20565;-70
2022/06/21 03:54:27;;;;;;;4.13;2.35;;;;;;;11.88;nan;100392.66;4982315;28;20184;-71
2022/06/21 03:56:56;;;;;;;6.72;2.88;;;;;;;11.86;nan;100391.94;4988094;28;20070;-71
2022/06/21 03:59:27;;;;;;;3.63;2.67;;;;;;;11.79;nan;100385.63;4988303;28;20088;-71
2022/06/21 04:02:00;;;;;;;4.20;2.40;;;;;;;11.75;nan;100389.59;4988294;28;20045;-70
2022/06/21 04:04:39;;;;;;;5.80;2.67;;;;;;;11.72;nan;100396.06;4987103;28;20132;-71
2022/06/21 04:07:16;;;;;;;4.43;2.70;;;;;;;11.71;nan;100386.47;4987540;28;20306;-71
2022/06/21 04:10:14;;;;;;;3.88;2.60;;;;;;;11.75;nan;100382.50;4987880;28;20443;-71
2022/06/21 04:12:57;;;;;;;4.57;2.50;;;;;;;11.78;nan;100387.47;4980050;28;20522;-71
2022/06/21 04:15:41;;;;;;;5.40;2.88;;;;;;;11.81;nan;100395.09;4987925;28;20041;-71
2022/06/21 04:18:20;;;;;;;4.35;2.40;;;;;;;11.83;nan;100394.94;4987462;28;20038;-71
2022/06/21 04:20:53;;;;;;;4.80;2.63;;;;;;;11.89;nan;100395.16;4987729;28;20038;-71
2022/06/21 04:23:23;;;;;;;4.22;2.42;;;;;;;11.96;nan;100395.28;4986783;28;20440;-71
2022/06/21 04:26:29;;;;;;;3.05;2.33;;;;;;;12.04;nan;100387.38;4987730;28;20068;-71
2022/06/21 04:29:15;;;;;;;3.85;2.47;;;;;;;12.13;nan;100390.00;4980113;28;20038;-71
2022/06/21 04:31:46;;;;;;;2.90;2.58;;;;;;;12.18;nan;100375.28;4972546;28;20063;-71
2022/06/21 04:34:30;;;;;;;;;;;;;;;12.24;nan;100385.22;4986024;28;20034;-71
2022/06/21 04:37:03;;;;;;;4.20;2.80;;;;;;;12.31;nan;100383.53;4988039;28;19933;-71
2022/06/21 04:39:47;;;;;;;3.85;2.50;;;;;;;12.37;nan;100381.22;4985682;28;20034;-71
2022/06/21 04:42:22;;;;;;;3.78;2.70;;;;;;;12.40;nan;100396.81;4987130;28;20033;-71
2022/06/21 04:45:09;;;;;;;3.70;2.35;;;;;;;12.43;nan;100394.66;4988249;28;20507;-71
2022/06/21 04:47:43;;;;;;;3.75;2.88;;;;;;;12.51;nan;100402.59;4987788;28;20030;-71
2022/06/21 04:50:34;;;;;;;4.03;2.70;;;;;;;12.65;nan;100402.91;4988936;28;20030;-71
2022/06/21 04:53:25;;;;;;;3.97;2.70;;;;;;;12.76;nan;100397.25;4986568;28;20097;-71
2022/06/21 04:56:07;;;;;;;5.03;2.50;;;;;;;12.91;nan;100400.03;4986398;28;20184;-71
2022/06/21 04:58:32;;;;;;;3.65;2.25;;;;;;;13.01;nan;100389.22;4986684;28;20059;-71
2022/06/21 05:00:59;;;;;;;3.00;1.95;;;;;;;13.12;nan;100394.16;4987574;28;20546;-71
2022/06/21 05:03:42;;;;;;;3.92;2.20;;;;;;;13.24;nan;100386.66;4986615;28;20108;-71
2022/06/21 05:06:12;;;;;;;3.22;2.20;;;;;;;13.33;nan;100381.16;4985995;28;20034;-71
2022/06/21 05:08:39;;;;;;;2.75;1.98;;;;;;;13.37;nan;100378.97;4986709;28;20258;-71
2022/06/21 05:11:04;;;;;;;3.05;2.00;;;;;;;13.46;nan;100379.78;4987847;28;20069;-71
2022/06/21 05:13:53;;;;;;;2.75;1.88;;;;;;;13.54;nan;100390.38;4986074;28;20086;-71
2022/06/21 05:16:27;;;;;;;2.40;1.95;;;;;;;13.66;nan;100393.44;4987164;28;20080;-71
2022/06/21 05:19:09;;;;;;;4.70;2.28;;;;;;;13.74;nan;100394.22;4988027;28;20454;-71
2022/06/21 05:21:42;;;;;;;2.58;1.92;;;;;;;13.88;nan;100387.31;4986323;28;20034;-71
2022/06/21 05:24:09;;;;;;;2.95;2.33;;;;;;;14.01;nan;100390.25;4985213;28;20130;-71
2022/06/21 05:26:43;;;;;;;3.47;1.98;;;;;;;14.14;nan;100386.16;4987504;28;20023;-71
2022/06/21 05:29:16;;;;;;;2.67;2.00;;;;;;;14.27;nan;100385.53;4990169;28;20113;-71
2022/06/21 05:31:45;;;;;;;3.08;2.20;;;;;;;14.32;nan;100388.47;4986431;28;20443;-71
2022/06/21 05:34:16;;;;;;;4.60;2.63;;;;;;;14.44;nan;100373.72;4986374;28;20041;-71
2022/06/21 05:37:00;;;;;;;3.10;2.20;;;;;;;14.59;nan;100382.63;4987633;28;20288;-71
2022/06/21 05:39:31;;;;;;;2.90;1.92;;;;;;;14.68;nan;100387.84;4985899;28;20090;-71
2022/06/21 05:42:01;;;;;;;3.35;2.15;;;;;;;14.81;nan;100386.22;4987344;28;20038;-73
2022/06/21 05:44:26;;;;;;;3.80;2.20;;;;;;;15.04;nan;100387.94;4987132;28;20035;-71
2022/06/21 05:46:58;;;;;;;4.30;2.33;;;;;;;15.28;nan;100378.84;4991230;28;20507;-71
2022/06/21 05:49:29;;;;;;;5.50;2.60;;;;;;;15.56;nan;100381.63;4991096;28;20046;-71
2022/06/21 05:52:00;;;;;;;3.23;2.20;;;;;;;15.87;nan;100392.06;4990217;28;20066;-71
2022/06/21 05:54:34;;;;;;;4.32;2.30;;;;;;;16.32;nan;100384.63;4988582;28;20092;-72
2022/06/21 05:57:02;;;;;;;5.20;2.40;;;;;;;16.86;nan;100385.88;4995932;28;20037;-71
2022/06/21 05:59:27;;;;;;;2.83;2.00;;;;;;;17.38;nan;100376.47;4989941;28;20129;-72
2022/06/21 06:01:59;;;;;;;3.28;2.15;;;;;;;17.93;nan;100379.13;4989941;28;20109;-72
2022/06/21 06:04:53;;;;;;;3.40;2.00;;;;;;;18.46;nan;100370.28;4989842;28;20038;-72
2022/06/21 06:07:27;;;;;;;2.97;1.70;;;;;;;18.96;nan;100369.81;4990379;28;20047;-72
2022/06/21 06:09:57;;;;;;;2.00;1.30;;;;;;;19.47;nan;100385.06;4990235;28;20030;-73
2022/06/21 06:12:27;;;;;;;2.78;1.20;;;;;;;19.96;nan;100385.44;4989365;28;20038;-73
2022/06/21 06:15:01;;;;;;;2.45;1.60;;;;;;;20.54;nan;100387.88;4990531;28;20563;-73
2022/06/21 06:17:49;;;;;;;2.95;1.30;;;;;;;21.03;nan;100391.53;4989786;28;20142;-73
2022/06/21 06:20:36;;;;;;;2.78;1.67;;;;;;;21.42;nan;100397.50;4990108;28;20570;-72
2022/06/21 06:23:07;;;;;;;3.88;1.50;;;;;;;21.92;nan;100391.84;4989849;28;20373;-73
2022/06/21 06:25:45;;;;;;;;;;;;;;;22.21;nan;100390.19;4993260;28;20034;-74
2022/06/21 06:28:28;;;;;;;2.17;1.23;;;;;;;22.73;nan;100386.00;5000605;28;20052;-71
2022/06/21 06:30:58;;;;;;;1.65;0.90;;;;;;;23.14;nan;100382.31;4978068;28;20050;-72
2022/06/21 06:33:39;;;;;;;3.08;1.00;;;;;;;23.28;nan;100380.19;4983769;28;20046;-72
2022/06/21 06:36:14;;;;;;;3.15;1.30;;;;;;;23.19;nan;100390.53;4989117;28;20327;-71
2022/06/21 06:38:41;;;;;;;1.98;1.00;;;;;;;23.07;nan;100398.66;4989021;28;20034;-72
2022/06/21 06:41:26;;;;;;;1.20;0.80;;;;;;;23.35;nan;100415.94;4997274;28;20511;-72
2022/06/21 06:43:58;;;;;;;1.67;0.80;;;;;;;23.68;nan;100412.53;4992516;28;20488;-71
2022/06/21 06:46:26;;;;;;;2.40;1.10;;;;;;;23.83;nan;100416.63;4991339;28;20042;-72
2022/06/21 06:48:58;;;;;;;1.55;0.80;;;;;;;23.89;nan;100421.06;4991696;28;20034;-72
2022/06/21 06:52:03;;;;;;;2.92;1.08;;;;;;;23.77;nan;100425.69;4994508;28;20522;-71
2022/06/21 06:54:57;;;;;;;2.42;1.00;;;;;;;23.98;nan;100421.47;4988634;28;20044;-72
2022/06/21 06:57:44;;;;;;;1.38;0.70;;;;;;;24.62;nan;100422.00;4984388;28;20065;-71
2022/06/21 07:00:12;;;;;;;2.25;0.77;;;;;;;25.52;nan;100422.69;4995274;28;20672;-71
2022/06/21 07:02:45;;;;;;;2.88;0.90;;;;;;;26.37;nan;100433.84;4989262;28;20031;-72
2022/06/21 07:05:33;;;;;;;2.40;1.00;;;;;;;26.89;nan;100449.41;4994710;28;20529;-72
2022/06/21 07:08:14;;;;;;;1.77;0.90;;;;;;;27.27;nan;100452.91;4988455;28;20038;-71
2022/06/21 07:10:40;;;;;;;2.55;1.20;;;;;;;26.96;nan;100446.47;4986952;28;20037;-72
2022/06/21 07:13:08;;;;;;;2.92;1.17;;;;;;;26.34;nan;100464.19;4989473;28;20407;-72
2022/06/21 07:15:39;;;;;;;3.70;1.25;;;;;;;25.53;nan;100456.81;4988500;28;20034;-73
2022/06/21 07:18:11;;;;;;;1.65;1.00;;;;;;;24.76;nan;100463.03;4988037;28;20515;-70
2022/06/21 07:20:43;;;;;;;2.45;1.00;;;;;;;24.24;nan;100455.16;4988386;28;20156;-73
2022/06/21 07:23:20;;;;;;;1.58;0.77;;;;;;;24.38;nan;100449.19;4982599;28;20116;-71
2022/06/21 07:25:52;;;;;;;2.58;1.00;;;;;;;24.52;nan;100443.47;4988248;28;20045;-71
2022/06/21 07:28:29;;;;;;;2.25;1.05;;;;;;;24.43;nan;100437.66;4986687;28;20088;-71
2022/06/21 07:30:59;;;;;;;2.53;1.05;;;;;;;24.54;nan;100439.47;4988861;28;20525;-72
2022/06/21 07:33:40;;;;;;;1.50;0.85;;;;;;;24.60;nan;100432.28;4988845;28;20089;-71
2022/06/21 07:36:15;;;;;;;2.35;1.00;;;;;;;24.88;nan;100430.50;4988276;28;20042;-72
2022/06/21 07:38:47;;;;;;;2.92;1.20;;;;;;;24.96;nan;100420.06;4989525;28;20092;-71
2022/06/21 07:41:26;;;;;;;2.03;0.95;;;;;;;25.05;nan;100412.34;4985810;28;20038;-71
2022/06/21 07:43:56;;;;;;;2.72;1.10;;;;;;;25.01;nan;100398.50;4983224;28;20049;-71
2022/06/21 07:46:51;;;;;;;4.07;1.30;;;;;;;24.97;nan;100364.88;4988013;28;20810;-73
2022/06/21 07:49:35;;;;;;;3.17;1.40;;;;;;;25.06;nan;100278.72;4982381;28;20209;-73
2022/06/21 07:52:06;;;;;;;3.53;0.98;;;;;;;25.25;nan;100224.28;4988348;28;20113;-72
2022/06/21 07:54:38;;;;;;;2.58;1.20;;;;;;;25.51;nan;100182.81;4987101;28;20038;-73
2022/06/21 07:57:28;;;;;;;3.70;1.20;;;;;;;25.52;nan;100151.13;4975018;28;20421;-71
2022/06/21 08:00:06;;;;;;;1.67;0.90;;;;;;;25.06;nan;100180.50;4987914;28;20514;-73
2022/06/21 08:08:28;;;;;;;2.10;1.00;;;;;;;24.20;nan;100259.47;4982094;28;20081;-72
2022/06/21 08:11:02;;;;;;;2.60;1.10;;;;;;;24.29;nan;100274.22;4987418;28;20042;-73
2022/06/21 08:13:29;;;;;;;2.15;1.17;;;;;;;24.35;nan;100290.22;4986072;28;20041;-73
2022/06/21 08:16:12;;;;;;;3.00;1.00;;;;;;;24.82;nan;100280.88;4964125;28;20084;-73
2022/06/21 08:18:54;;;;;;;2.90;1.20;;;;;;;25.16;nan;100289.63;4987921;28;20418;-73
2022/06/21 08:21:33;;;;;;;2.13;0.90;;;;;;;25.68;nan;100285.56;4987031;28;20126;-73
2022/06/21 08:24:21;;;;;;;1.83;0.95;;;;;;;26.12;nan;100276.44;4988031;28;20499;-73
2022/06/21 08:26:53;;;;;;;1.77;0.90;;;;;;;26.88;nan;100282.25;4987814;28;20062;-71
2022/06/21 08:29:31;;;;;;;2.22;0.70;;;;;;;27.69;nan;100285.44;4991479;28;20041;-73
2022/06/21 08:32:38;;;;;;;1.92;1.20;;;;;;;27.62;nan;100285.69;4986634;28;20132;-73
2022/06/21 08:35:15;;;;;;;2.10;1.00;;;;;;;27.41;nan;100294.91;4987379;28;20105;-73
2022/06/21 08:38:09;;;;;;;1.90;0.90;;;;;;;27.87;nan;100286.81;4987090;28;20035;-73
2022/06/21 08:40:55;;;;;;;1.83;0.77;;;;;;;28.31;nan;100286.19;4981293;28;20403;-73
2022/06/21 08:43:42;;;;;;;2.10;0.80;;;;;;;28.58;nan;100294.06;4984646;28;20046;-73
2022/06/21 08:46:24;;;;;;;1.92;0.90;;;;;;;28.72;nan;100294.25;4986316;28;20073;-73
2022/06/21 08:49:16;;;;;;;3.22;1.10;;;;;;;28.56;nan;100291.59;4987558;28;20097;-73
2022/06/21 08:52:20;;;;;;;2.78;0.98;;;;;;;29.06;nan;100294.38;4988645;28;20061;-71
2022/06/21 08:55:04;;;;;;;2.40;1.00;;;;;;;29.53;nan;100290.28;4987611;28;20194;-72
2022/06/21 08:57:57;;;;;;;2.58;0.90;;;;;;;29.60;nan;100284.50;4985644;28;20042;-71
2022/06/21 09:00:40;;;;;;;2.13;0.90;;;;;;;29.35;nan;100280.88;4987862;28;20053;-72
2022/06/21 09:03:11;;;;;;;1.92;0.90;;;;;;;29.87;nan;100275.88;4986718;28;20030;-71
2022/06/21 09:06:01;;;;;;;1.98;0.93;;;;;;;29.78;nan;100269.41;4983244;28;20062;-71
2022/06/21 09:08:41;;;;;;;2.15;0.80;;;;;;;29.99;nan;100264.56;4974492;28;20475;-72
2022/06/21 09:11:09;;;;;;;1.10;0.80;;;;;;;30.53;nan;100258.00;4978056;28;20421;-71
2022/06/21 09:14:01;;;;;;;2.45;1.00;;;;;;;31.23;nan;100249.16;4987669;28;20294;-72
2022/06/21 09:16:41;;;;;;;2.08;0.88;;;;;;;31.71;nan;100254.41;4965427;28;20499;-71
2022/06/21 09:19:37;;;;;;;1.55;0.80;;;;;;;32.09;nan;100261.69;4987771;28;20415;-71
2022/06/21 09:22:36;;;;;;;3.03;1.10;;;;;;;32.52;nan;100262.22;4991449;28;20113;-71
2022/06/21 09:25:16;;;;;;;3.25;1.00;;;;;;;32.51;nan;100260.63;4986095;28;20089;-72
2022/06/21 09:27:50;;;;;;;1.63;0.80;;;;;;;32.68;nan;100257.25;4992569;28;20026;-72
2022/06/21 09:30:23;;;;;;;2.28;0.90;;;;;;;32.48;nan;100263.91;4991175;28;20041;-72
2022/06/21 09:33:03;;;;;;;2.38;1.00;;;;;;;31.69;nan;100261.28;4992955;28;20034;-72
2022/06/21 09:35:50;;;;;;;2.10;0.98;;;;;;;32.13;nan;100251.75;4989646;28;20039;-71
2022/06/21 09:38:37;;;;;;;2.20;0.80;;;;;;;32.47;nan;100254.09;4993188;28;20038;-71
2022/06/21 09:41:46;;;;;;;2.03;0.90;;;;;;;33.05;nan;100180.59;4993276;28;20785;-72
2022/06/21 09:44:27;;;;;;;2.00;0.75;;;;;;;33.98;nan;100245.69;4927121;28;20514;-72
2022/06/21 09:46:55;;;;;;;1.88;0.85;;;;;;;34.43;nan;100259.28;4991491;28;20443;-72
2022/06/21 09:49:47;;;;;;;1.13;0.60;;;;;;;34.89;nan;100269.72;4986857;28;20403;-72
2022/06/21 09:52:22;;;;;;;3.28;0.70;;;;;;;35.04;nan;100256.66;4983229;28;20623;-72
2022/06/21 09:55:01;;;;;;;2.50;0.75;;;;;;;34.64;nan;100256.78;4995961;28;20065;-72
2022/06/21 09:57:51;;;;;;;2.33;0.80;;;;;;;34.03;nan;100246.34;4991317;28;20400;-72
2022/06/21 10:00:22;;;;;;;2.42;0.75;;;;;;;33.46;nan;100246.16;4990537;28;20044;-72
2022/06/21 10:03:10;;;;;;;;;;;;;;;32.57;nan;100248.44;4991333;28;20036;-73
2022/06/21 10:05:59;;;;;;;3.25;1.00;;;;;;;31.52;nan;100238.06;4988066;28;19926;-71
2022/06/21 10:08:54;;;;;;;2.88;0.93;;;;;;;31.85;nan;100234.50;4987240;28;22803;-71
2022/06/21 10:12:01;;;;;;;1.50;0.60;;;;;;;32.81;nan;100235.63;4992574;28;20042;-72
2022/06/21 10:14:46;;;;;;;2.03;0.80;;;;;;;33.77;nan;100229.75;4990259;28;20403;-71
2022/06/21 10:17:46;;;;;;;1.17;0.80;;;;;;;32.87;nan;100229.75;4987329;28;20061;-72
2022/06/21 10:20:23;;;;;;;1.92;0.80;;;;;;;32.96;nan;100232.53;4986120;28;20045;-71
2022/06/21 10:23:16;;;;;;;0.95;0.70;;;;;;;32.86;nan;100235.50;4984980;28;20050;-71
2022/06/21 10:26:05;;;;;;;1.33;0.80;;;;;;;34.59;nan;100238.50;4987958;28;20040;-72
2022/06/21 10:29:03;;;;;;;2.10;0.82;;;;;;;35.48;nan;100236.28;4993019;28;20046;-72
2022/06/21 10:31:47;;;;;;;1.40;0.93;;;;;;;35.73;nan;100237.38;4951814;28;20503;-72
2022/06/21 10:34:49;;;;;;;1.83;0.93;;;;;;;36.55;nan;100239.13;4991771;28;20041;-72
2022/06/21 10:37:48;;;;;;;2.72;0.90;;;;;;;37.36;nan;100246.16;4990674;28;20046;-73
2022/06/21 10:40:23;;;;;;;2.25;0.80;;;;;;;36.86;nan;100247.03;4979700;28;20117;-72
2022/06/21 10:43:13;;;;;;;2.45;0.80;;;;;;;37.22;nan;100223.56;4997621;28;20037;-72
2022/06/21 10:45:50;;;;;;;1.15;0.70;;;;;;;37.69;nan;100228.81;5012312;28;20120;-72
2022/06/21 10:48:32;;;;;;;0.77;0.60;;;;;;;37.95;nan;100227.66;4995191;28;20026;-72
2022/06/21 10:51:41;;;;;;;1.30;0.75;;;;;;;38.85;nan;100212.78;4992052;28;20035;-72
2022/06/21 10:54:22;;;;;;;1.65;1.00;;;;;;;39.32;nan;100222.38;4973267;28;20041;-72
2022/06/21 10:57:11;;;;;;;1.55;0.80;;;;;;;38.84;nan;100215.88;4991488;28;20081;-72
2022/06/21 11:02:42;;;;;;;2.55;0.90;;;;;;;39.25;nan;100206.41;4985661;28;20069;-73
2022/06/21 11:05:29;;;;;;;1.83;0.77;;;;;;;39.83;nan;100202.41;4988193;28;20046;-73
2022/06/21 11:08:06;;;;;;;3.00;0.85;;;;;;;40.13;nan;100200.75;4989717;28;20048;-72
2022/06/21 11:10:37;;;;;;;1.92;0.80;;;;;;;40.59;nan;100197.44;4987135;28;20069;-71
2022/06/21 11:13:05;;;;;;;;;;;;;;;41.30;nan;100194.53;4988841;28;20120;-72
2022/06/21 11:16:08;;;;;;;1.40;0.80;;;;;;;41.82;nan;100176.44;4988013;28;19918;-72
2022/06/21 11:18:41;;;;;;;2.20;0.75;;;;;;;41.40;nan;100168.94;4985409;28;20078;-72
2022/06/21 11:21:24;;;;;;;1.60;0.70;;;;;;;40.42;nan;100153.53;4984656;28;20054;-72
2022/06/21 11:24:11;;;;;;;2.13;0.85;;;;;;;40.20;nan;100149.47;4964803;28;20046;-72
2022/06/21 11:26:53;;;;;;;1.80;0.80;;;;;;;39.87;nan;100139.63;4988610;28;20166;-72
2022/06/21 11:29:22;;;;;;;1.65;0.70;;;;;;;40.04;nan;100143.97;4987206;28;20045;-72
2022/06/21 11:32:20;;;;;;;2.63;0.80;;;;;;;39.53;nan;100149.44;4988516;28;20435;-71
2022/06/21 11:35:01;;;;;;;1.90;0.75;;;;;;;39.32;nan;100067.47;4983817;28;20384;-72
2022/06/21 11:37:50;;;;;;;1.15;0.63;;;;;;;40.03;nan;100148.69;4984799;28;20100;-72
2022/06/21 11:40:29;;;;;;;1.33;0.60;;;;;;;41.05;nan;100150.47;4988549;28;20040;-72
2022/06/21 11:42:58;;;;;;;2.45;0.80;;;;;;;41.18;nan;100149.16;4989890;28;20061;-73
2022/06/21 11:45:36;;;;;;;2.72;1.00;;;;;;;41.25;nan;100142.13;4986351;28;20027;-73
2022/06/21 11:48:07;;;;;;;3.50;1.10;;;;;;;41.12;nan;100139.53;4987527;28;20035;-72
2022/06/21 11:50:43;;;;;;;2.47;0.90;;;;;;;41.09;nan;100145.78;4989227;28;20408;-72
2022/06/21 11:53:35;;;;;;;2.08;0.90;;;;;;;40.00;nan;100066.34;4983915;28;20046;-72
2022/06/21 11:56:18;;;;;;;2.05;0.70;;;;;;;38.02;nan;100070.59;4987917;28;20047;-72
2022/06/21 11:58:54;;;;;;;2.45;1.02;;;;;;;36.40;nan;100132.31;4985154;28;20039;-72
2022/06/21 12:01:23;;;;;;;1.45;0.82;;;;;;;36.05;nan;100127.81;4988293;28;20043;-72
2022/06/21 12:04:10;;;;;;;1.75;0.85;;;;;;;37.43;nan;100113.22;4988636;28;20045;-74
2022/06/21 12:06:48;;;;;;;2.88;0.98;;;;;;;38.73;nan;100106.97;4985631;28;20050;-72
2022/06/21 12:09:35;;;;;;;2.70;0.88;;;;;;;40.08;nan;100114.38;4987615;28;20042;-73
2022/06/21 12:12:22;;;;;;;0.80;0.60;;;;;;;41.09;nan;100114.47;4984332;28;20110;-72
2022/06/21 12:14:56;;;;;;;1.88;0.90;;;;;;;40.36;nan;100100.38;4988995;28;20057;-73
2022/06/21 12:17:38;;;;;;;1.50;0.70;;;;;;;41.06;nan;100085.50;4988553;28;20446;-72
2022/06/21 12:20:14;;;;;;;2.38;0.90;;;;;;;41.63;nan;100080.16;4968494;28;20038;-72
2022/06/21 12:22:47;;;;;;;2.08;1.00;;;;;;;39.75;nan;100071.28;4987355;28;20042;-72
2022/06/21 12:25:16;;;;;;;1.63;0.85;;;;;;;38.54;nan;100069.75;4986529;28;20062;-72
2022/06/21 12:27:41;;;;;;;1.30;0.75;;;;;;;37.90;nan;100073.31;4989256;28;20407;-73
2022/06/21 12:30:18;;;;;;;1.53;0.80;;;;;;;38.18;nan;100070.66;4985322;28;20042;-72
2022/06/21 12:32:44;;;;;;;1.58;0.90;;;;;;;37.70;nan;100066.81;4983583;28;20285;-72
2022/06/21 12:35:16;;;;;;;2.17;1.02;;;;;;;36.96;nan;100056.47;4986970;28;20046;-72
2022/06/21 12:37:52;;;;;;;2.42;1.10;;;;;;;36.39;nan;100064.63;4991841;28;20039;-73
2022/06/21 12:40:43;;;;;;;2.35;1.05;;;;;;;35.23;nan;100051.03;4986731;28;20038;-72